San Juan, PR

6:47 PM AST on September 01, 2014 (GMT -0400)
Condado, Calle Earle, At The Ocean | Change Station
CLOSE
Current Station
Personal Weather Station
Location: San Juan, SAN JUAN
Elevation: 10 ft
Nearby Weather Stations

Elev 10 ft 18.46 °N, 66.07 °W | Updated 5 seconds ago

Scattered Clouds
Scattered Clouds
82.5 °F
Feels Like 91 °F
N
5.0
Wind Variable Wind from ENE
Gusts 14.0 mph

Today
High -- | Low -- °F
--% Chance of Precip.
Yesterday
High -- | Low -- °F
Precip. -- in
6:09 AM 6:38 PM
Waxing Crescent, 45% visible
Pressure 29.96 in
Visibility 10.0 miles
Clouds Few 3200 ft
Scattered Clouds 6000 ft
Scattered Clouds 10000 ft
Heat Index 91 °F
Dew Point 77 °F
Humidity 83%
Rainfall 0.07 in
Snow Depth Not available.
UV 0 out of 12
Pollen Not available.
Air Quality Not available.
Flu Activity Not available.
METAR TJSJ 012156Z 07012KT 10SM FEW032 SCT060 SCT100 29/24 A2996 RMK AO2 SLP145 T02890244

More Conditions Fewer Conditions

Pressure 29.96 in
Visibility 10.0 miles
Clouds Few 3200 ft
Scattered Clouds 6000 ft
Scattered Clouds 10000 ft
Heat Index 91 °F
Dew Point 77 °F
Humidity 83%
Rainfall 0.07 in
Snow Depth Not available.
UV 0 out of 12
Pollen Not available.
Air Quality Not available.
Flu Activity Not available.
METAR TJSJ 012156Z 07012KT 10SM FEW032 SCT060 SCT100 29/24 A2996 RMK AO2 SLP145 T02890244

More Conditions Fewer Conditions

10-Day Weather Forecast

Almanac

Astronomy

Sep. 01, 2014 Rise Set
Actual Time 6:09 AM AST 6:38 PM AST
Civil Twilight 5:47 AM AST 7:00 PM AST
Nautical Twilight 5:21 AM AST 7:26 PM AST
Astronomical Twilight 4:55 AM AST 7:52 PM AST
Moon 11:56 AM AST 11:32 PM AST
Length of Visible Light 13h 13m
Length of Day
12h 28m
Tomorrow will be 1m 0s shorter.
Waxing Crescent, 45% of the Moon is Illuminated
Today
Waxing Crescent
Sep 2
First Quarter
Sep 8
Full
Sep 15
Last Quarter
Sep 24
New

Community

WunderPhotos

Upload Photos

1,749,427 photos uploaded!

Nearby

Snow Depth

Station Depth Elevation
No new snow has been reported.

Earthquake Activity

City Distance Mag. Time & Date
No recent earthquake activity has been reported nearby.
Minimum magnitude displayed is 2.5.

Coastal Water Temperatures

Place Temperature
San Juan, PR 84.9 °F
Mayaguez, PR 84.9 °F
Esperanza, PR 86.0 °F

Nearby Weather Stations